sensor_id;sensor_type;location;lat;lon;timestamp;P1;durP1;ratioP1;P2;durP2;ratioP2
48891;SDS011;50130;52.150;5.236;2022-09-09T00:00:06;4.5;;;1.9;;
48891;SDS011;50130;52.150;5.236;2022-09-09T00:01:50;4.0;;;2.0;;
48891;SDS011;50130;52.150;5.236;2022-09-09T00:03:36;4.41;;;2.21;;
48891;SDS011;50130;52.150;5.236;2022-09-09T00:05:19;3.6;;;2.0;;
48891;SDS011;50130;52.150;5.236;2022-09-09T00:07:07;5.4;;;2.0;;
48891;SDS011;50130;52.150;5.236;2022-09-09T00:10:39;3.9;;;1.7;;
48891;SDS011;50130;52.150;5.236;2022-09-09T00:12:18;5.6;;;2.1;;
48891;SDS011;50130;52.150;5.236;2022-09-09T00:14:13;4.2;;;2.21;;
48891;SDS011;50130;52.150;5.236;2022-09-09T00:15:59;4.2;;;2.31;;
48891;SDS011;50130;52.150;5.236;2022-09-09T00:17:43;5.4;;;2.1;;
48891;SDS011;50130;52.150;5.236;2022-09-09T00:21:15;3.6;;;2.1;;
48891;SDS011;50130;52.150;5.236;2022-09-09T00:22:54;4.3;;;2.21;;
48891;SDS011;50130;52.150;5.236;2022-09-09T00:24:41;5.5;;;2.4;;
48891;SDS011;50130;52.150;5.236;2022-09-09T00:26:22;3.8;;;2.4;;
48891;SDS011;50130;52.150;5.236;2022-09-09T00:28:09;4.5;;;2.6;;
48891;SDS011;50130;52.150;5.236;2022-09-09T00:31:37;4.8;;;2.31;;
48891;SDS011;50130;52.150;5.236;2022-09-09T00:33:16;4.5;;;2.7;;
48891;SDS011;50130;52.150;5.236;2022-09-09T00:34:56;5.2;;;3.0;;
48891;SDS011;50130;52.150;5.236;2022-09-09T00:36:38;4.3;;;2.7;;
48891;SDS011;50130;52.150;5.236;2022-09-09T00:39:57;5.0;;;3.0;;
48891;SDS011;50130;52.150;5.236;2022-09-09T00:41:41;4.91;;;2.9;;
48891;SDS011;50130;52.150;5.236;2022-09-09T00:43:38;6.1;;;2.8;;
48891;SDS011;50130;52.150;5.236;2022-09-09T00:45:19;4.0;;;2.8;;
48891;SDS011;50130;52.150;5.236;2022-09-09T00:47:52;6.0;;;3.5;;
48891;SDS011;50130;52.150;5.236;2022-09-09T00:49:33;5.9;;;3.1;;
48891;SDS011;50130;52.150;5.236;2022-09-09T00:51:23;5.6;;;3.1;;
48891;SDS011;50130;52.150;5.236;2022-09-09T00:53:17;7.1;;;3.0;;
48891;SDS011;50130;52.150;5.236;2022-09-09T00:56:53;7.1;;;3.0;;
48891;SDS011;50130;52.150;5.236;2022-09-09T00:58:42;8.1;;;3.6;;
48891;SDS011;50130;52.150;5.236;2022-09-09T01:00:27;5.11;;;3.4;;
48891;SDS011;50130;52.150;5.236;2022-09-09T01:02:12;6.2;;;3.5;;
48891;SDS011;50130;52.150;5.236;2022-09-09T01:03:54;8.6;;;4.1;;
48891;SDS011;50130;52.150;5.236;2022-09-09T01:07:16;4.61;;;3.0;;
48891;SDS011;50130;52.150;5.236;2022-09-09T01:09:00;5.2;;;3.5;;
48891;SDS011;50130;52.150;5.236;2022-09-09T01:10:57;6.4;;;3.6;;
48891;SDS011;50130;52.150;5.236;2022-09-09T01:12:37;6.0;;;3.2;;
48891;SDS011;50130;52.150;5.236;2022-09-09T01:14:22;6.8;;;3.8;;
48891;SDS011;50130;52.150;5.236;2022-09-09T01:16:10;5.2;;;3.5;;
48891;SDS011;50130;52.150;5.236;2022-09-09T01:19:37;6.7;;;4.1;;
48891;SDS011;50130;52.150;5.236;2022-09-09T01:21:26;7.2;;;3.9;;
48891;SDS011;50130;52.150;5.236;2022-09-09T01:23:19;6.0;;;3.5;;
48891;SDS011;50130;52.150;5.236;2022-09-09T01:26:10;7.3;;;4.1;;
48891;SDS011;50130;52.150;5.236;2022-09-09T01:27:50;5.6;;;4.0;;
48891;SDS011;50130;52.150;5.236;2022-09-09T01:29:31;7.9;;;4.1;;
48891;SDS011;50130;52.150;5.236;2022-09-09T01:31:09;7.3;;;4.5;;
48891;SDS011;50130;52.150;5.236;2022-09-09T01:32:51;7.2;;;4.2;;
48891;SDS011;50130;52.150;5.236;2022-09-09T01:36:19;6.7;;;4.41;;
48891;SDS011;50130;52.150;5.236;2022-09-09T01:38:00;6.7;;;4.41;;
48891;SDS011;50130;52.150;5.236;2022-09-09T01:39:37;7.8;;;4.5;;
48891;SDS011;50130;52.150;5.236;2022-09-09T01:41:17;7.6;;;4.41;;
48891;SDS011;50130;52.150;5.236;2022-09-09T01:44:32;7.6;;;4.41;;
48891;SDS011;50130;52.150;5.236;2022-09-09T01:46:10;7.2;;;4.2;;
48891;SDS011;50130;52.150;5.236;2022-09-09T01:47:48;6.6;;;4.41;;
48891;SDS011;50130;52.150;5.236;2022-09-09T01:51:03;7.5;;;4.7;;
48891;SDS011;50130;52.150;5.236;2022-09-09T01:52:39;8.2;;;4.61;;
48891;SDS011;50130;52.150;5.236;2022-09-09T01:54:16;8.0;;;5.2;;
48891;SDS011;50130;52.150;5.236;2022-09-09T01:55:56;5.4;;;4.41;;
48891;SDS011;50130;52.150;5.236;2022-09-09T01:59:36;6.6;;;5.11;;
48891;SDS011;50130;52.150;5.236;2022-09-09T02:01:26;6.4;;;4.3;;
48891;SDS011;50130;52.150;5.236;2022-09-09T02:03:18;6.2;;;4.3;;
48891;SDS011;50130;52.150;5.236;2022-09-09T02:05:03;8.5;;;5.6;;
48891;SDS011;50130;52.150;5.236;2022-09-09T02:06:52;7.2;;;5.0;;
48891;SDS011;50130;52.150;5.236;2022-09-09T02:08:33;9.21;;;5.3;;
48891;SDS011;50130;52.150;5.236;2022-09-09T02:12:06;7.9;;;5.4;;
48891;SDS011;50130;52.150;5.236;2022-09-09T02:13:48;8.2;;;5.2;;
48891;SDS011;50130;52.150;5.236;2022-09-09T02:15:30;9.0;;;5.3;;
48891;SDS011;50130;52.150;5.236;2022-09-09T02:17:15;7.2;;;5.11;;
48891;SDS011;50130;52.150;5.236;2022-09-09T02:19:01;8.31;;;5.6;;
48891;SDS011;50130;52.150;5.236;2022-09-09T02:22:21;9.31;;;4.41;;
48891;SDS011;50130;52.150;5.236;2022-09-09T02:24:00;7.4;;;4.8;;
48891;SDS011;50130;52.150;5.236;2022-09-09T02:25:41;6.4;;;4.8;;
48891;SDS011;50130;52.150;5.236;2022-09-09T02:27:19;9.6;;;5.7;;
48891;SDS011;50130;52.150;5.236;2022-09-09T02:30:38;7.1;;;5.2;;
48891;SDS011;50130;52.150;5.236;2022-09-09T02:32:18;9.71;;;4.8;;
48891;SDS011;50130;52.150;5.236;2022-09-09T02:33:59;7.7;;;5.11;;
48891;SDS011;50130;52.150;5.236;2022-09-09T02:35:37;6.8;;;4.61;;
48891;SDS011;50130;52.150;5.236;2022-09-09T02:38:58;10.21;;;6.0;;
48891;SDS011;50130;52.150;5.236;2022-09-09T02:40:35;6.5;;;4.61;;
48891;SDS011;50130;52.150;5.236;2022-09-09T02:42:11;7.1;;;5.3;;
48891;SDS011;50130;52.150;5.236;2022-09-09T02:45:25;8.6;;;5.7;;
48891;SDS011;50130;52.150;5.236;2022-09-09T02:47:13;6.8;;;4.8;;
48891;SDS011;50130;52.150;5.236;2022-09-09T02:49:00;7.5;;;5.5;;
48891;SDS011;50130;52.150;5.236;2022-09-09T02:50:46;6.9;;;4.91;;
48891;SDS011;50130;52.150;5.236;2022-09-09T02:52:33;7.6;;;4.91;;
48891;SDS011;50130;52.150;5.236;2022-09-09T02:56:04;8.6;;;5.6;;
48891;SDS011;50130;52.150;5.236;2022-09-09T02:57:47;9.21;;;5.9;;
48891;SDS011;50130;52.150;5.236;2022-09-09T02:59:25;9.6;;;5.9;;
48891;SDS011;50130;52.150;5.236;2022-09-09T03:01:02;10.1;;;5.5;;
48891;SDS011;50130;52.150;5.236;2022-09-09T03:04:15;7.9;;;5.5;;
48891;SDS011;50130;52.150;5.236;2022-09-09T03:05:51;7.7;;;5.3;;
48891;SDS011;50130;52.150;5.236;2022-09-09T03:07:27;7.5;;;5.6;;
48891;SDS011;50130;52.150;5.236;2022-09-09T03:09:04;8.5;;;6.2;;
48891;SDS011;50130;52.150;5.236;2022-09-09T03:12:16;8.0;;;5.8;;
48891;SDS011;50130;52.150;5.236;2022-09-09T03:13:53;8.31;;;5.6;;
48891;SDS011;50130;52.150;5.236;2022-09-09T03:15:31;12.5;;;6.2;;
48891;SDS011;50130;52.150;5.236;2022-09-09T03:18:45;7.8;;;5.8;;
48891;SDS011;50130;52.150;5.236;2022-09-09T03:20:22;8.81;;;5.6;;
48891;SDS011;50130;52.150;5.236;2022-09-09T03:22:00;6.7;;;5.9;;
48891;SDS011;50130;52.150;5.236;2022-09-09T03:25:12;9.71;;;6.5;;
48891;SDS011;50130;52.150;5.236;2022-09-09T03:26:50;8.9;;;6.0;;
48891;SDS011;50130;52.150;5.236;2022-09-09T03:28:31;11.3;;;5.9;;
48891;SDS011;50130;52.150;5.236;2022-09-09T03:30:07;8.2;;;5.5;;
48891;SDS011;50130;52.150;5.236;2022-09-09T03:33:20;8.4;;;6.2;;
48891;SDS011;50130;52.150;5.236;2022-09-09T03:34:56;8.0;;;6.2;;
48891;SDS011;50130;52.150;5.236;2022-09-09T03:36:32;8.1;;;5.5;;
48891;SDS011;50130;52.150;5.236;2022-09-09T03:39:46;9.0;;;5.9;;
48891;SDS011;50130;52.150;5.236;2022-09-09T03:41:24;7.9;;;5.3;;
48891;SDS011;50130;52.150;5.236;2022-09-09T03:43:01;9.81;;;6.4;;
48891;SDS011;50130;52.150;5.236;2022-09-09T03:44:37;9.21;;;6.5;;
48891;SDS011;50130;52.150;5.236;2022-09-09T03:47:50;9.0;;;6.1;;
48891;SDS011;50130;52.150;5.236;2022-09-09T03:49:28;9.0;;;6.6;;
48891;SDS011;50130;52.150;5.236;2022-09-09T03:51:05;9.0;;;6.5;;
48891;SDS011;50130;52.150;5.236;2022-09-09T03:54:18;10.1;;;6.9;;
48891;SDS011;50130;52.150;5.236;2022-09-09T03:55:55;10.0;;;6.9;;
48891;SDS011;50130;52.150;5.236;2022-09-09T03:57:34;6.8;;;5.4;;
48891;SDS011;50130;52.150;5.236;2022-09-09T04:00:52;8.6;;;6.6;;
48891;SDS011;50130;52.150;5.236;2022-09-09T04:02:30;11.6;;;6.5;;
48891;SDS011;50130;52.150;5.236;2022-09-09T04:04:08;9.81;;;6.2;;
48891;SDS011;50130;52.150;5.236;2022-09-09T04:05:48;10.0;;;6.2;;
48891;SDS011;50130;52.150;5.236;2022-09-09T04:09:03;7.9;;;5.8;;
48891;SDS011;50130;52.150;5.236;2022-09-09T04:10:39;8.81;;;5.7;;
48891;SDS011;50130;52.150;5.236;2022-09-09T04:12:16;10.7;;;6.3;;
48891;SDS011;50130;52.150;5.236;2022-09-09T04:13:52;8.0;;;5.6;;
48891;SDS011;50130;52.150;5.236;2022-09-09T04:17:06;6.9;;;5.5;;
48891;SDS011;50130;52.150;5.236;2022-09-09T04:18:42;10.0;;;6.5;;
48891;SDS011;50130;52.150;5.236;2022-09-09T04:20:19;8.81;;;6.1;;
48891;SDS011;50130;52.150;5.236;2022-09-09T04:23:31;11.0;;;7.9;;
48891;SDS011;50130;52.150;5.236;2022-09-09T04:25:08;10.0;;;6.4;;
48891;SDS011;50130;52.150;5.236;2022-09-09T04:26:45;10.3;;;7.9;;
48891;SDS011;50130;52.150;5.236;2022-09-09T04:30:01;9.6;;;7.0;;
48891;SDS011;50130;52.150;5.236;2022-09-09T04:31:41;9.0;;;6.1;;
48891;SDS011;50130;52.150;5.236;2022-09-09T04:33:17;10.21;;;6.3;;
48891;SDS011;50130;52.150;5.236;2022-09-09T04:34:54;14.7;;;7.4;;
48891;SDS011;50130;52.150;5.236;2022-09-09T04:38:09;13.0;;;7.1;;
48891;SDS011;50130;52.150;5.236;2022-09-09T04:39:45;9.9;;;7.2;;
48891;SDS011;50130;52.150;5.236;2022-09-09T04:41:21;8.81;;;6.0;;
48891;SDS011;50130;52.150;5.236;2022-09-09T04:44:35;11.5;;;7.1;;
48891;SDS011;50130;52.150;5.236;2022-09-09T04:46:11;11.5;;;7.1;;
48891;SDS011;50130;52.150;5.236;2022-09-09T04:47:47;11.2;;;6.6;;
48891;SDS011;50130;52.150;5.236;2022-09-09T04:51:00;11.2;;;6.1;;
48891;SDS011;50130;52.150;5.236;2022-09-09T04:52:37;11.8;;;7.0;;
48891;SDS011;50130;52.150;5.236;2022-09-09T04:54:13;10.3;;;6.7;;
48891;SDS011;50130;52.150;5.236;2022-09-09T04:55:50;8.0;;;5.8;;
48891;SDS011;50130;52.150;5.236;2022-09-09T04:59:02;11.1;;;5.9;;
48891;SDS011;50130;52.150;5.236;2022-09-09T05:00:38;8.31;;;5.9;;
48891;SDS011;50130;52.150;5.236;2022-09-09T05:02:14;11.7;;;6.3;;
48891;SDS011;50130;52.150;5.236;2022-09-09T05:05:28;9.4;;;6.4;;
48891;SDS011;50130;52.150;5.236;2022-09-09T05:07:04;9.1;;;6.5;;
48891;SDS011;50130;52.150;5.236;2022-09-09T05:08:41;9.5;;;5.6;;
48891;SDS011;50130;52.150;5.236;2022-09-09T05:11:57;10.7;;;6.1;;
48891;SDS011;50130;52.150;5.236;2022-09-09T05:13:34;10.3;;;6.5;;
48891;SDS011;50130;52.150;5.236;2022-09-09T05:15:10;11.9;;;6.5;;
48891;SDS011;50130;52.150;5.236;2022-09-09T05:16:47;9.31;;;6.2;;
48891;SDS011;50130;52.150;5.236;2022-09-09T05:19:59;8.81;;;6.1;;
48891;SDS011;50130;52.150;5.236;2022-09-09T05:21:35;11.7;;;5.9;;
48891;SDS011;50130;52.150;5.236;2022-09-09T05:23:13;10.7;;;5.9;;
48891;SDS011;50130;52.150;5.236;2022-09-09T05:26:26;9.81;;;5.4;;
48891;SDS011;50130;52.150;5.236;2022-09-09T05:28:02;9.0;;;5.9;;
48891;SDS011;50130;52.150;5.236;2022-09-09T05:29:38;14.2;;;7.2;;
48891;SDS011;50130;52.150;5.236;2022-09-09T05:32:55;9.6;;;6.4;;
48891;SDS011;50130;52.150;5.236;2022-09-09T05:34:32;12.4;;;6.7;;
48891;SDS011;50130;52.150;5.236;2022-09-09T05:36:09;13.2;;;7.5;;
48891;SDS011;50130;52.150;5.236;2022-09-09T05:37:47;8.4;;;5.5;;
48891;SDS011;50130;52.150;5.236;2022-09-09T05:41:00;11.7;;;6.7;;
48891;SDS011;50130;52.150;5.236;2022-09-09T05:42:37;9.71;;;6.3;;
48891;SDS011;50130;52.150;5.236;2022-09-09T05:44:13;16.11;;;6.8;;
48891;SDS011;50130;52.150;5.236;2022-09-09T05:47:35;10.9;;;6.1;;
48891;SDS011;50130;52.150;5.236;2022-09-09T05:49:12;13.8;;;6.4;;
48891;SDS011;50130;52.150;5.236;2022-09-09T05:50:52;11.7;;;5.8;;
48891;SDS011;50130;52.150;5.236;2022-09-09T05:52:28;9.71;;;6.0;;
48891;SDS011;50130;52.150;5.236;2022-09-09T05:55:42;8.71;;;5.11;;
48891;SDS011;50130;52.150;5.236;2022-09-09T05:57:19;11.4;;;6.2;;
48891;SDS011;50130;52.150;5.236;2022-09-09T05:58:55;12.1;;;6.1;;
48891;SDS011;50130;52.150;5.236;2022-09-09T06:02:09;9.31;;;5.4;;
48891;SDS011;50130;52.150;5.236;2022-09-09T06:03:45;10.4;;;5.4;;
48891;SDS011;50130;52.150;5.236;2022-09-09T06:05:23;11.8;;;6.2;;
48891;SDS011;50130;52.150;5.236;2022-09-09T06:07:00;11.9;;;5.7;;
48891;SDS011;50130;52.150;5.236;2022-09-09T06:10:16;12.7;;;5.8;;
48891;SDS011;50130;52.150;5.236;2022-09-09T06:11:54;12.1;;;5.8;;
48891;SDS011;50130;52.150;5.236;2022-09-09T06:13:30;12.1;;;5.4;;
48891;SDS011;50130;52.150;5.236;2022-09-09T06:16:46;11.7;;;5.0;;
48891;SDS011;50130;52.150;5.236;2022-09-09T06:18:22;12.9;;;5.3;;
48891;SDS011;50130;52.150;5.236;2022-09-09T06:19:59;12.9;;;5.3;;
48891;SDS011;50130;52.150;5.236;2022-09-09T06:21:36;10.3;;;4.91;;
48891;SDS011;50130;52.150;5.236;2022-09-09T06:24:49;13.4;;;5.0;;
48891;SDS011;50130;52.150;5.236;2022-09-09T06:26:26;11.6;;;5.6;;
48891;SDS011;50130;52.150;5.236;2022-09-09T06:28:03;13.2;;;5.4;;
48891;SDS011;50130;52.150;5.236;2022-09-09T06:31:17;10.3;;;4.3;;
48891;SDS011;50130;52.150;5.236;2022-09-09T06:32:55;12.9;;;4.61;;
48891;SDS011;50130;52.150;5.236;2022-09-09T06:34:32;9.6;;;4.1;;
48891;SDS011;50130;52.150;5.236;2022-09-09T06:36:10;10.7;;;4.7;;
48891;SDS011;50130;52.150;5.236;2022-09-09T06:39:24;11.7;;;4.0;;
48891;SDS011;50130;52.150;5.236;2022-09-09T06:41:01;11.7;;;4.0;;
48891;SDS011;50130;52.150;5.236;2022-09-09T06:42:38;10.21;;;3.6;;
48891;SDS011;50130;52.150;5.236;2022-09-09T06:45:52;9.1;;;4.1;;
48891;SDS011;50130;52.150;5.236;2022-09-09T06:47:30;10.1;;;4.1;;
48891;SDS011;50130;52.150;5.236;2022-09-09T06:49:07;8.9;;;3.9;;
48891;SDS011;50130;52.150;5.236;2022-09-09T06:52:19;13.9;;;4.2;;
48891;SDS011;50130;52.150;5.236;2022-09-09T06:53:56;10.5;;;3.9;;
48891;SDS011;50130;52.150;5.236;2022-09-09T06:55:34;9.81;;;3.7;;
48891;SDS011;50130;52.150;5.236;2022-09-09T06:57:11;17.8;;;4.3;;
48891;SDS011;50130;52.150;5.236;2022-09-09T07:00:26;8.31;;;3.5;;
48891;SDS011;50130;52.150;5.236;2022-09-09T07:02:03;10.3;;;4.5;;
48891;SDS011;50130;52.150;5.236;2022-09-09T07:03:39;12.8;;;3.5;;
48891;SDS011;50130;52.150;5.236;2022-09-09T07:06:52;8.9;;;3.1;;
48891;SDS011;50130;52.150;5.236;2022-09-09T07:08:28;11.5;;;3.7;;
48891;SDS011;50130;52.150;5.236;2022-09-09T07:10:04;13.1;;;3.4;;
48891;SDS011;50130;52.150;5.236;2022-09-09T07:11:42;9.1;;;3.5;;
48891;SDS011;50130;52.150;5.236;2022-09-09T07:15:01;10.5;;;3.2;;
48891;SDS011;50130;52.150;5.236;2022-09-09T07:16:37;11.5;;;3.2;;
48891;SDS011;50130;52.150;5.236;2022-09-09T07:18:13;12.9;;;3.6;;
48891;SDS011;50130;52.150;5.236;2022-09-09T07:21:26;7.7;;;2.8;;
48891;SDS011;50130;52.150;5.236;2022-09-09T07:23:04;13.0;;;3.0;;
48891;SDS011;50130;52.150;5.236;2022-09-09T07:24:40;10.5;;;2.9;;
48891;SDS011;50130;52.150;5.236;2022-09-09T07:27:57;11.8;;;3.1;;
48891;SDS011;50130;52.150;5.236;2022-09-09T07:29:33;11.8;;;3.0;;
48891;SDS011;50130;52.150;5.236;2022-09-09T07:32:51;10.3;;;3.2;;
48891;SDS011;50130;52.150;5.236;2022-09-09T07:36:05;9.6;;;2.31;;
48891;SDS011;50130;52.150;5.236;2022-09-09T07:37:43;11.3;;;3.0;;
48891;SDS011;50130;52.150;5.236;2022-09-09T07:39:20;9.1;;;2.7;;
48891;SDS011;50130;52.150;5.236;2022-09-09T07:42:39;9.31;;;2.9;;
48891;SDS011;50130;52.150;5.236;2022-09-09T07:44:17;11.7;;;3.2;;
48891;SDS011;50130;52.150;5.236;2022-09-09T07:45:57;11.5;;;3.0;;
48891;SDS011;50130;52.150;5.236;2022-09-09T07:47:34;10.7;;;3.2;;
48891;SDS011;50130;52.150;5.236;2022-09-09T07:50:47;8.71;;;2.7;;
48891;SDS011;50130;52.150;5.236;2022-09-09T07:52:23;10.0;;;3.0;;
48891;SDS011;50130;52.150;5.236;2022-09-09T07:54:00;12.4;;;3.1;;
48891;SDS011;50130;52.150;5.236;2022-09-09T07:55:37;9.21;;;2.7;;
48891;SDS011;50130;52.150;5.236;2022-09-09T07:58:52;11.6;;;3.2;;
48891;SDS011;50130;52.150;5.236;2022-09-09T08:00:30;10.5;;;3.0;;
48891;SDS011;50130;52.150;5.236;2022-09-09T08:02:06;9.6;;;2.9;;
48891;SDS011;50130;52.150;5.236;2022-09-09T08:05:28;11.1;;;2.6;;
48891;SDS011;50130;52.150;5.236;2022-09-09T08:07:04;11.6;;;2.7;;
48891;SDS011;50130;52.150;5.236;2022-09-09T08:08:41;10.0;;;2.8;;
48891;SDS011;50130;52.150;5.236;2022-09-09T08:10:18;9.71;;;3.0;;
48891;SDS011;50130;52.150;5.236;2022-09-09T08:13:33;10.3;;;2.8;;
48891;SDS011;50130;52.150;5.236;2022-09-09T08:15:10;10.6;;;3.0;;
48891;SDS011;50130;52.150;5.236;2022-09-09T08:16:48;11.8;;;2.5;;
48891;SDS011;50130;52.150;5.236;2022-09-09T08:20:06;8.81;;;2.31;;
48891;SDS011;50130;52.150;5.236;2022-09-09T08:21:43;11.5;;;2.9;;
48891;SDS011;50130;52.150;5.236;2022-09-09T08:23:21;10.4;;;2.4;;
48891;SDS011;50130;52.150;5.236;2022-09-09T08:24:58;8.71;;;2.31;;
48891;SDS011;50130;52.150;5.236;2022-09-09T08:28:12;9.1;;;2.31;;
48891;SDS011;50130;52.150;5.236;2022-09-09T08:29:48;10.21;;;2.8;;
48891;SDS011;50130;52.150;5.236;2022-09-09T08:31:25;9.6;;;2.21;;
48891;SDS011;50130;52.150;5.236;2022-09-09T08:34:41;8.4;;;2.31;;
48891;SDS011;50130;52.150;5.236;2022-09-09T08:36:19;10.5;;;2.7;;
48891;SDS011;50130;52.150;5.236;2022-09-09T08:37:58;9.5;;;2.0;;
48891;SDS011;50130;52.150;5.236;2022-09-09T08:39:34;10.9;;;3.0;;
48891;SDS011;50130;52.150;5.236;2022-09-09T08:43:42;10.1;;;2.6;;
48891;SDS011;50130;52.150;5.236;2022-09-09T08:45:24;10.0;;;2.9;;
48891;SDS011;50130;52.150;5.236;2022-09-09T08:47:09;8.9;;;2.5;;
48891;SDS011;50130;52.150;5.236;2022-09-09T08:49:00;8.6;;;2.4;;
48891;SDS011;50130;52.150;5.236;2022-09-09T08:50:43;9.5;;;2.8;;
48891;SDS011;50130;52.150;5.236;2022-09-09T08:52:21;9.71;;;2.31;;
48891;SDS011;50130;52.150;5.236;2022-09-09T08:55:42;12.6;;;2.5;;
48891;SDS011;50130;52.150;5.236;2022-09-09T08:57:22;8.2;;;2.21;;
48891;SDS011;50130;52.150;5.236;2022-09-09T08:59:03;8.81;;;2.31;;
48891;SDS011;50130;52.150;5.236;2022-09-09T09:00:43;14.7;;;2.31;;
48891;SDS011;50130;52.150;5.236;2022-09-09T09:02:46;9.21;;;2.1;;
48891;SDS011;50130;52.150;5.236;2022-09-09T09:06:31;9.31;;;2.21;;
48891;SDS011;50130;52.150;5.236;2022-09-09T09:08:22;10.5;;;2.5;;
48891;SDS011;50130;52.150;5.236;2022-09-09T09:10:09;11.2;;;2.4;;
48891;SDS011;50130;52.150;5.236;2022-09-09T09:12:01;6.9;;;2.1;;
48891;SDS011;50130;52.150;5.236;2022-09-09T09:13:44;10.6;;;2.31;;
48891;SDS011;50130;52.150;5.236;2022-09-09T09:15:30;9.4;;;2.5;;
48891;SDS011;50130;52.150;5.236;2022-09-09T09:17:13;8.6;;;2.4;;
48891;SDS011;50130;52.150;5.236;2022-09-09T09:20:32;13.8;;;2.7;;
48891;SDS011;50130;52.150;5.236;2022-09-09T09:22:21;9.71;;;2.4;;
48891;SDS011;50130;52.150;5.236;2022-09-09T09:23:59;9.1;;;2.6;;
48891;SDS011;50130;52.150;5.236;2022-09-09T09:25:38;9.71;;;2.5;;
48891;SDS011;50130;52.150;5.236;2022-09-09T09:29:10;9.71;;;2.31;;
48891;SDS011;50130;52.150;5.236;2022-09-09T09:30:49;11.6;;;2.31;;
48891;SDS011;50130;52.150;5.236;2022-09-09T09:32:30;10.4;;;2.8;;
48891;SDS011;50130;52.150;5.236;2022-09-09T09:34:11;9.6;;;2.4;;
48891;SDS011;50130;52.150;5.236;2022-09-09T09:37:26;11.9;;;2.6;;
48891;SDS011;50130;52.150;5.236;2022-09-09T09:39:06;9.5;;;2.7;;
48891;SDS011;50130;52.150;5.236;2022-09-09T09:40:48;11.3;;;2.7;;
48891;SDS011;50130;52.150;5.236;2022-09-09T09:42:29;9.4;;;2.4;;
48891;SDS011;50130;52.150;5.236;2022-09-09T09:46:00;9.5;;;2.4;;
48891;SDS011;50130;52.150;5.236;2022-09-09T09:47:40;11.3;;;2.8;;
48891;SDS011;50130;52.150;5.236;2022-09-09T09:49:17;11.5;;;2.4;;
48891;SDS011;50130;52.150;5.236;2022-09-09T09:50:54;11.9;;;3.2;;
48891;SDS011;50130;52.150;5.236;2022-09-09T09:54:15;10.0;;;2.9;;
48891;SDS011;50130;52.150;5.236;2022-09-09T09:55:59;9.31;;;2.5;;
48891;SDS011;50130;52.150;5.236;2022-09-09T09:57:39;12.2;;;3.0;;
48891;SDS011;50130;52.150;5.236;2022-09-09T09:59:19;8.0;;;3.0;;
48891;SDS011;50130;52.150;5.236;2022-09-09T10:01:18;10.21;;;3.1;;
48891;SDS011;50130;52.150;5.236;2022-09-09T10:04:35;10.8;;;3.2;;
48891;SDS011;50130;52.150;5.236;2022-09-09T10:06:12;11.6;;;3.2;;
48891;SDS011;50130;52.150;5.236;2022-09-09T10:07:59;10.7;;;3.1;;
48891;SDS011;50130;52.150;5.236;2022-09-09T10:09:37;12.8;;;3.7;;
48891;SDS011;50130;52.150;5.236;2022-09-09T10:13:07;10.4;;;3.3;;
48891;SDS011;50130;52.150;5.236;2022-09-09T10:14:53;11.2;;;3.2;;
48891;SDS011;50130;52.150;5.236;2022-09-09T10:16:42;11.3;;;3.8;;
48891;SDS011;50130;52.150;5.236;2022-09-09T10:18:36;13.1;;;3.3;;
48891;SDS011;50130;52.150;5.236;2022-09-09T10:20:27;12.1;;;3.4;;
48891;SDS011;50130;52.150;5.236;2022-09-09T10:22:15;9.4;;;3.0;;
48891;SDS011;50130;52.150;5.236;2022-09-09T10:26:04;14.4;;;3.1;;
48891;SDS011;50130;52.150;5.236;2022-09-09T10:28:28;10.7;;;2.8;;
48891;SDS011;50130;52.150;5.236;2022-09-09T10:30:59;8.6;;;2.5;;
48891;SDS011;50130;52.150;5.236;2022-09-09T10:32:53;11.5;;;3.0;;
48891;SDS011;50130;52.150;5.236;2022-09-09T10:34:46;9.4;;;2.8;;
48891;SDS011;50130;52.150;5.236;2022-09-09T10:38:16;10.4;;;2.8;;
48891;SDS011;50130;52.150;5.236;2022-09-09T10:40:00;10.3;;;3.0;;
48891;SDS011;50130;52.150;5.236;2022-09-09T10:41:54;10.3;;;3.1;;
48891;SDS011;50130;52.150;5.236;2022-09-09T10:43:44;9.6;;;2.9;;
48891;SDS011;50130;52.150;5.236;2022-09-09T10:45:35;14.0;;;3.4;;
48891;SDS011;50130;52.150;5.236;2022-09-09T10:47:27;11.6;;;3.2;;
48891;SDS011;50130;52.150;5.236;2022-09-09T10:49:26;9.0;;;2.8;;
48891;SDS011;50130;52.150;5.236;2022-09-09T10:51:22;12.1;;;3.3;;
48891;SDS011;50130;52.150;5.236;2022-09-09T10:54:53;12.0;;;3.5;;
48891;SDS011;50130;52.150;5.236;2022-09-09T10:56:36;10.5;;;3.5;;
48891;SDS011;50130;52.150;5.236;2022-09-09T10:58:14;11.1;;;3.3;;
48891;SDS011;50130;52.150;5.236;2022-09-09T11:00:02;12.3;;;3.2;;
48891;SDS011;50130;52.150;5.236;2022-09-09T11:03:23;12.3;;;3.4;;
48891;SDS011;50130;52.150;5.236;2022-09-09T11:05:04;9.31;;;2.9;;
48891;SDS011;50130;52.150;5.236;2022-09-09T11:06:53;8.6;;;2.7;;
48891;SDS011;50130;52.150;5.236;2022-09-09T11:08:31;8.4;;;2.6;;
48891;SDS011;50130;52.150;5.236;2022-09-09T11:10:16;9.1;;;3.2;;
48891;SDS011;50130;52.150;5.236;2022-09-09T11:13:39;7.7;;;2.4;;
48891;SDS011;50130;52.150;5.236;2022-09-09T11:15:23;8.31;;;2.7;;
48891;SDS011;50130;52.150;5.236;2022-09-09T11:17:15;6.5;;;2.5;;
48891;SDS011;50130;52.150;5.236;2022-09-09T11:19:00;8.81;;;2.6;;
48891;SDS011;50130;52.150;5.236;2022-09-09T11:20:41;8.0;;;2.4;;
48891;SDS011;50130;52.150;5.236;2022-09-09T11:24:13;8.1;;;2.6;;
48891;SDS011;50130;52.150;5.236;2022-09-09T11:25:57;11.2;;;2.9;;
48891;SDS011;50130;52.150;5.236;2022-09-09T11:27:41;9.81;;;2.6;;
48891;SDS011;50130;52.150;5.236;2022-09-09T11:29:49;8.6;;;2.8;;
48891;SDS011;50130;52.150;5.236;2022-09-09T11:31:44;9.31;;;2.9;;
48891;SDS011;50130;52.150;5.236;2022-09-09T11:33:34;10.7;;;2.8;;
48891;SDS011;50130;52.150;5.236;2022-09-09T11:35:34;8.9;;;2.7;;
48891;SDS011;50130;52.150;5.236;2022-09-09T11:37:29;6.8;;;2.5;;
48891;SDS011;50130;52.150;5.236;2022-09-09T11:41:40;7.2;;;2.6;;
48891;SDS011;50130;52.150;5.236;2022-09-09T11:45:08;7.7;;;2.6;;
48891;SDS011;50130;52.150;5.236;2022-09-09T11:46:46;9.31;;;3.0;;
48891;SDS011;50130;52.150;5.236;2022-09-09T11:48:29;10.0;;;2.21;;
48891;SDS011;50130;52.150;5.236;2022-09-09T11:50:10;6.3;;;1.8;;
48891;SDS011;50130;52.150;5.236;2022-09-09T11:52:10;6.8;;;2.21;;
48891;SDS011;50130;52.150;5.236;2022-09-09T11:55:36;6.2;;;1.8;;
48891;SDS011;50130;52.150;5.236;2022-09-09T11:57:16;7.4;;;1.7;;
48891;SDS011;50130;52.150;5.236;2022-09-09T11:59:02;7.5;;;2.1;;
48891;SDS011;50130;52.150;5.236;2022-09-09T12:00:41;9.1;;;2.4;;
48891;SDS011;50130;52.150;5.236;2022-09-09T12:04:05;7.4;;;1.9;;
48891;SDS011;50130;52.150;5.236;2022-09-09T12:05:49;8.5;;;2.21;;
48891;SDS011;50130;52.150;5.236;2022-09-09T12:07:30;4.8;;;1.7;;
48891;SDS011;50130;52.150;5.236;2022-09-09T12:09:15;5.4;;;1.9;;
48891;SDS011;50130;52.150;5.236;2022-09-09T12:10:59;8.0;;;2.5;;
48891;SDS011;50130;52.150;5.236;2022-09-09T12:14:22;6.7;;;2.31;;
48891;SDS011;50130;52.150;5.236;2022-09-09T12:16:26;7.9;;;2.31;;
48891;SDS011;50130;52.150;5.236;2022-09-09T12:18:04;6.5;;;2.31;;
48891;SDS011;50130;52.150;5.236;2022-09-09T12:19:59;6.8;;;2.31;;
48891;SDS011;50130;52.150;5.236;2022-09-09T12:21:39;8.4;;;2.21;;
48891;SDS011;50130;52.150;5.236;2022-09-09T12:23:29;8.4;;;2.6;;
48891;SDS011;50130;52.150;5.236;2022-09-09T12:27:01;6.8;;;2.21;;
48891;SDS011;50130;52.150;5.236;2022-09-09T12:28:46;8.4;;;2.31;;
48891;SDS011;50130;52.150;5.236;2022-09-09T12:30:32;8.71;;;3.0;;
48891;SDS011;50130;52.150;5.236;2022-09-09T12:32:19;8.4;;;2.5;;
48891;SDS011;50130;52.150;5.236;2022-09-09T12:34:04;6.1;;;2.31;;
48891;SDS011;50130;52.150;5.236;2022-09-09T12:37:33;6.8;;;2.6;;
48891;SDS011;50130;52.150;5.236;2022-09-09T12:39:15;6.4;;;2.31;;
48891;SDS011;50130;52.150;5.236;2022-09-09T12:40:56;5.5;;;2.6;;
48891;SDS011;50130;52.150;5.236;2022-09-09T12:42:33;8.4;;;3.5;;
48891;SDS011;50130;52.150;5.236;2022-09-09T12:45:57;8.31;;;2.7;;
48891;SDS011;50130;52.150;5.236;2022-09-09T12:47:39;7.8;;;2.5;;
48891;SDS011;50130;52.150;5.236;2022-09-09T12:49:25;6.1;;;2.4;;
48891;SDS011;50130;52.150;5.236;2022-09-09T12:51:06;6.8;;;2.4;;
48891;SDS011;50130;52.150;5.236;2022-09-09T12:52:58;7.2;;;2.4;;
48891;SDS011;50130;52.150;5.236;2022-09-09T12:56:21;7.1;;;3.0;;